createdAt,value
2019-04-26T00:01:00.542Z,0.20
2019-04-26T00:03:30.462Z,0.10
2019-04-26T00:05:58.975Z,0.65
2019-04-26T00:08:27.273Z,0.45
2019-04-26T00:10:57.196Z,0.20
2019-04-26T00:13:29.972Z,0.08
2019-04-26T00:16:02.740Z,0.30
2019-04-26T00:18:31.043Z,0.08
2019-04-26T00:20:59.316Z,0.00
2019-04-26T00:23:27.615Z,0.10
2019-04-26T00:25:56.169Z,0.20
2019-04-26T00:28:24.462Z,0.10
2019-04-26T00:30:52.749Z,0.10
2019-04-26T00:33:21.444Z,0.10
2019-04-26T00:35:49.789Z,0.37
2019-04-26T00:38:18.266Z,0.10
2019-04-26T00:40:46.600Z,0.10
2019-04-26T00:43:14.969Z,0.00
2019-04-26T00:45:43.327Z,0.05
2019-04-26T00:48:12.558Z,0.20
2019-04-26T00:50:42.015Z,0.10
2019-04-26T00:53:10.319Z,0.03
2019-04-26T00:55:39.036Z,0.37
2019-04-26T00:58:08.200Z,0.30
2019-04-26T01:00:36.916Z,0.00
2019-04-26T01:03:05.209Z,0.40
2019-04-26T01:05:35.127Z,0.10
2019-04-26T01:08:03.421Z,0.17
2019-04-26T01:10:31.693Z,0.10
2019-04-26T01:12:59.993Z,0.10
2019-04-26T01:15:28.272Z,0.65
2019-04-26T01:17:56.562Z,0.00
2019-04-26T01:20:26.778Z,0.23
2019-04-26T01:22:58.260Z,0.50
2019-04-26T01:25:35.455Z,0.17
2019-04-26T01:28:06.090Z,0.13
2019-04-26T01:30:35.837Z,0.10
2019-04-26T01:33:04.605Z,0.17
2019-04-26T01:35:32.988Z,0.95
2019-04-26T01:38:02.354Z,0.10
2019-04-26T01:40:32.502Z,0.10
2019-04-26T01:43:14.163Z,0.23
2019-04-26T01:45:45.860Z,0.10
2019-04-26T01:48:45.454Z,1.02
2019-04-26T01:51:26.605Z,0.10
2019-04-26T01:53:54.950Z,0.13
2019-04-26T01:56:29.336Z,0.10
2019-04-26T01:58:57.617Z,0.20
2019-04-26T02:01:36.976Z,0.10
2019-04-26T02:04:05.364Z,0.10
2019-04-26T02:06:35.242Z,0.33
2019-04-26T02:09:05.371Z,0.30
2019-04-26T02:11:33.955Z,0.20
2019-04-26T02:14:02.263Z,0.10
2019-04-26T02:16:31.175Z,0.10
2019-04-26T02:18:59.516Z,0.25
2019-04-26T02:21:29.947Z,0.10
2019-04-26T02:23:59.868Z,0.10
2019-04-26T02:26:38.633Z,0.10
2019-04-26T02:29:25.277Z,0.10
2019-04-26T02:31:57.494Z,0.30
2019-04-26T02:34:29.231Z,1.30
2019-04-26T02:36:59.016Z,0.20
2019-04-26T02:39:35.331Z,0.10
2019-04-26T02:42:06.100Z,0.10
2019-04-26T02:44:37.137Z,0.10
2019-04-26T02:47:50.321Z,0.10
2019-04-26T02:50:28.320Z,0.35
2019-04-26T02:53:08.747Z,0.00
2019-04-26T02:55:49.165Z,0.40
2019-04-26T02:58:19.404Z,0.10
2019-04-26T03:00:47.869Z,0.20
2019-04-26T03:03:16.625Z,0.10
2019-04-26T03:05:45.712Z,0.17
2019-04-26T03:08:15.608Z,0.00
2019-04-26T03:10:46.809Z,0.30
2019-04-26T03:13:18.747Z,0.40
2019-04-26T03:16:07.257Z,0.60
2019-04-26T03:18:41.545Z,0.10
2019-04-26T03:21:25.627Z,0.40
2019-04-26T03:24:02.838Z,0.20
2019-04-26T03:26:43.408Z,0.10
2019-04-26T03:29:37.441Z,0.20
2019-04-26T03:32:17.486Z,0.70
2019-04-26T03:35:23.627Z,0.53
2019-04-26T03:38:05.939Z,0.30
2019-04-26T03:40:56.773Z,0.10
2019-04-26T03:43:44.245Z,0.28
2019-04-26T03:46:15.941Z,1.15
2019-04-26T03:49:11.441Z,0.20
2019-04-26T03:51:59.312Z,0.82
2019-04-26T03:54:29.039Z,0.23
2019-04-26T03:57:21.555Z,0.28
2019-04-26T03:59:57.201Z,0.33
2019-04-26T04:02:32.965Z,0.30
2019-04-26T04:05:11.853Z,0.35
2019-04-26T04:07:46.017Z,0.20
2019-04-26T04:10:25.997Z,0.57
2019-04-26T04:13:03.034Z,0.33
2019-04-26T04:15:38.684Z,0.30
2019-04-26T04:18:11.980Z,0.10
2019-04-26T04:21:08.746Z,0.80
2019-04-26T04:23:48.793Z,0.28
2019-04-26T04:26:23.330Z,0.30
2019-04-26T04:28:57.569Z,1.07
2019-04-26T04:31:41.780Z,0.33
2019-04-26T04:34:25.486Z,0.60
2019-04-26T04:36:55.617Z,0.20
2019-04-26T04:39:38.737Z,0.45
2019-04-26T04:45:20.723Z,1.35
2019-04-26T04:48:17.216Z,1.40
2019-04-26T04:51:05.255Z,0.80
2019-04-26T04:53:54.174Z,0.35
2019-04-26T04:56:34.342Z,0.60
2019-04-26T04:59:08.639Z,1.00
2019-04-26T05:01:59.308Z,0.85
2019-04-26T05:04:56.612Z,1.22
2019-04-26T05:07:43.854Z,0.82
2019-04-26T05:10:16.825Z,1.25
2019-04-26T05:12:52.122Z,1.00
2019-04-26T05:15:44.845Z,1.55
2019-04-26T05:18:28.335Z,0.93
2019-04-26T05:21:18.102Z,0.82
2019-04-26T05:23:49.573Z,2.17
2019-04-26T05:26:57.351Z,1.50
2019-04-26T05:29:49.856Z,1.17
2019-04-26T05:32:57.011Z,0.95
2019-04-26T05:35:42.198Z,1.07
2019-04-26T05:38:18.586Z,1.32
2019-04-26T05:40:52.141Z,0.80
2019-04-26T05:43:43.464Z,1.20
2019-04-26T05:46:41.478Z,1.82
2019-04-26T05:49:22.887Z,0.98
2019-04-26T05:52:30.366Z,0.55
2019-04-26T05:55:30.611Z,1.95
2019-04-26T05:58:09.209Z,1.40
2019-04-26T06:01:01.997Z,0.98
2019-04-26T06:03:37.689Z,1.40
2019-04-26T06:06:22.538Z,1.10
2019-04-26T06:09:01.626Z,2.40
2019-04-26T06:11:34.879Z,2.00
2019-04-26T06:14:07.973Z,1.52
2019-04-26T06:16:59.279Z,1.10
2019-04-26T06:19:44.001Z,1.00
2019-04-26T06:22:27.185Z,1.32
2019-04-26T06:25:15.734Z,0.80
2019-04-26T06:27:54.622Z,1.17
2019-04-26T06:30:29.015Z,0.93
2019-04-26T06:33:21.260Z,1.05
2019-04-26T06:35:51.722Z,0.98
2019-04-26T06:38:48.770Z,0.95
2019-04-26T06:42:05.099Z,1.57
2019-04-26T06:44:38.483Z,1.07
2019-04-26T06:47:28.092Z,0.50
2019-04-26T06:50:30.839Z,0.98
2019-04-26T06:53:09.061Z,1.12
2019-04-26T06:55:45.078Z,0.50
2019-04-26T06:58:27.935Z,0.47
2019-04-26T07:01:12.184Z,1.52
2019-04-26T07:04:04.176Z,0.33
2019-04-26T07:06:35.663Z,1.00
2019-04-26T07:09:11.684Z,1.17
2019-04-26T07:12:03.048Z,1.77
2019-04-26T07:14:40.709Z,1.65
2019-04-26T07:17:14.768Z,0.45
2019-04-26T07:20:11.773Z,0.90
2019-04-26T07:23:02.130Z,1.27
2019-04-26T07:26:02.256Z,0.98
2019-04-26T07:28:35.353Z,1.85
2019-04-26T07:31:24.942Z,1.98
2019-04-26T07:34:17.366Z,1.32
2019-04-26T07:37:11.476Z,0.47
2019-04-26T07:40:11.948Z,1.35
2019-04-26T07:42:56.808Z,0.65
2019-04-26T07:45:38.224Z,0.75
2019-04-26T07:48:27.822Z,0.57
2019-04-26T07:51:19.032Z,1.80
2019-04-26T07:53:50.500Z,0.60
2019-04-26T07:56:27.893Z,0.65
2019-04-26T07:59:21.914Z,1.42
2019-04-26T08:02:16.646Z,0.45
2019-04-26T08:04:51.044Z,1.25
2019-04-26T08:07:21.864Z,1.32
2019-04-26T08:09:59.894Z,0.82
2019-04-26T08:12:28.995Z,1.12
2019-04-26T08:15:27.580Z,1.05
2019-04-26T08:17:59.052Z,0.45
2019-04-26T08:20:34.013Z,1.12
2019-04-26T08:23:09.114Z,0.98
2019-04-26T08:25:36.598Z,0.55
2019-04-26T08:28:08.337Z,0.90
2019-04-26T08:30:47.172Z,1.05
2019-04-26T08:33:18.721Z,0.88
2019-04-26T08:35:48.965Z,1.10
2019-04-26T08:38:22.326Z,0.30
2019-04-26T08:40:48.582Z,0.42
2019-04-26T08:43:27.346Z,1.12
2019-04-26T08:46:03.038Z,0.90
2019-04-26T08:48:33.573Z,0.50
2019-04-26T08:51:04.068Z,0.33
2019-04-26T08:53:33.049Z,0.65
2019-04-26T08:56:03.072Z,0.70
2019-04-26T08:58:33.189Z,0.90
2019-04-26T09:01:11.831Z,1.10
2019-04-26T09:03:44.983Z,0.95
2019-04-26T09:06:25.383Z,0.93
2019-04-26T09:08:55.215Z,0.98
2019-04-26T09:11:30.152Z,0.88
2019-04-26T09:13:55.989Z,1.32
2019-04-26T09:16:24.365Z,0.40
2019-04-26T09:18:55.144Z,0.68
2019-04-26T09:21:24.312Z,0.57
2019-04-26T09:24:10.597Z,0.60
2019-04-26T09:26:49.303Z,1.07
2019-04-26T09:29:19.236Z,0.47
2019-04-26T09:31:58.004Z,0.68
2019-04-26T09:34:27.953Z,0.62
2019-04-26T09:36:56.237Z,1.47
2019-04-26T09:39:25.288Z,1.17
2019-04-26T09:41:55.231Z,0.50
2019-04-26T09:44:26.195Z,1.40
2019-04-26T09:47:11.150Z,0.45
2019-04-26T09:49:41.362Z,1.62
2019-04-26T09:52:12.200Z,0.65
2019-04-26T09:54:40.483Z,0.40
2019-04-26T09:57:08.993Z,0.40
2019-04-26T09:59:39.965Z,0.65
2019-04-26T10:02:07.684Z,0.75
2019-04-26T10:04:35.984Z,0.33
2019-04-26T10:07:04.343Z,0.72
2019-04-26T10:09:33.092Z,0.30
2019-04-26T10:12:03.287Z,0.35
2019-04-26T10:14:49.361Z,0.70
2019-04-26T10:17:31.011Z,0.90
2019-04-26T10:19:59.286Z,0.30
2019-04-26T10:22:29.290Z,0.60
2019-04-26T10:24:57.610Z,0.50
2019-04-26T10:27:25.913Z,0.60
2019-04-26T10:29:56.153Z,0.57
2019-04-26T10:32:26.328Z,0.95
2019-04-26T10:34:54.238Z,0.37
2019-04-26T10:37:22.535Z,0.42
2019-04-26T10:39:50.825Z,0.53
2019-04-26T10:42:19.204Z,0.93
2019-04-26T10:44:47.486Z,0.72
2019-04-26T10:47:15.878Z,0.98
2019-04-26T10:49:46.199Z,0.95
2019-04-26T10:52:19.883Z,0.35
2019-04-26T10:54:49.806Z,0.90
2019-04-26T10:57:19.749Z,0.80
2019-04-26T10:59:49.673Z,0.68
2019-04-26T11:02:19.265Z,0.85
2019-04-26T11:04:47.538Z,1.05
2019-04-26T11:07:15.838Z,0.23
2019-04-26T11:09:44.168Z,0.30
2019-04-26T11:12:14.227Z,0.20
2019-04-26T11:14:42.584Z,0.30
2019-04-26T11:17:11.526Z,0.50
2019-04-26T11:19:40.899Z,0.70
2019-04-26T11:22:09.208Z,1.07
2019-04-26T11:24:37.503Z,0.68
2019-04-26T11:27:09.663Z,1.02
2019-04-26T11:29:36.601Z,0.50
2019-04-26T11:32:04.898Z,0.30
2019-04-26T11:34:33.180Z,0.40
2019-04-26T11:37:01.459Z,0.50
2019-04-26T11:39:29.769Z,0.70
2019-04-26T11:41:58.040Z,0.65
2019-04-26T11:44:27.462Z,0.55
2019-04-26T11:46:59.343Z,0.15
2019-04-26T11:49:26.432Z,0.57
2019-04-26T11:51:54.711Z,0.93
2019-04-26T11:54:23.253Z,0.40
2019-04-26T11:56:51.546Z,0.20
2019-04-26T11:59:19.845Z,0.47
2019-04-26T12:01:48.117Z,1.20
2019-04-26T12:04:18.060Z,0.20
2019-04-26T12:06:50.684Z,0.40
2019-04-26T12:09:35.999Z,0.50
2019-04-26T12:12:05.394Z,0.53
2019-04-26T12:14:34.833Z,0.82
2019-04-26T12:17:04.493Z,0.62
2019-04-26T12:19:33.530Z,0.40
2019-04-26T12:22:04.373Z,0.70
2019-04-26T12:24:34.401Z,1.00
2019-04-26T12:27:01.911Z,1.52
2019-04-26T12:29:31.505Z,1.47
2019-04-26T12:31:59.689Z,0.65
2019-04-26T12:34:27.989Z,0.72
2019-04-26T12:36:56.279Z,0.60
2019-04-26T12:39:25.069Z,2.08
2019-04-26T12:41:53.351Z,0.42
2019-04-26T12:44:23.426Z,0.50
2019-04-26T12:46:59.336Z,0.53
2019-04-26T12:49:26.627Z,1.30
2019-04-26T12:51:54.902Z,0.98
2019-04-26T12:54:23.216Z,0.72
2019-04-26T12:56:51.512Z,0.72
2019-04-26T12:59:22.353Z,0.90
2019-04-26T13:01:49.811Z,0.28
2019-04-26T13:04:18.105Z,1.60
2019-04-26T13:07:02.427Z,0.93
2019-04-26T13:09:31.462Z,1.27
2019-04-26T13:12:03.788Z,0.98
2019-04-26T13:14:42.939Z,2.17
2019-04-26T13:17:13.844Z,1.40
2019-04-26T13:19:42.147Z,1.17
2019-04-26T13:22:12.587Z,1.82
2019-04-26T13:24:40.981Z,0.72
2019-04-26T13:27:10.628Z,2.02
2019-04-26T13:29:39.373Z,2.05
2019-04-26T13:32:07.651Z,1.22
2019-04-26T13:34:37.284Z,1.00
2019-04-26T13:37:05.984Z,0.82
2019-04-26T13:39:34.299Z,1.35
2019-04-26T13:42:09.061Z,1.20
2019-04-26T13:44:52.653Z,1.87
2019-04-26T13:47:22.573Z,1.55
2019-04-26T13:49:58.361Z,1.52
2019-04-26T13:52:26.650Z,1.77
2019-04-26T13:54:55.511Z,1.70
2019-04-26T13:57:24.722Z,1.27
2019-04-26T13:59:53.016Z,1.52
2019-04-26T14:02:21.296Z,1.72
2019-04-26T14:04:49.600Z,1.20
2019-04-26T14:07:20.107Z,1.55
2019-04-26T14:09:47.886Z,1.50
2019-04-26T14:12:18.847Z,1.50
2019-04-26T14:14:46.182Z,2.40
2019-04-26T14:17:14.480Z,2.85
2019-04-26T14:19:45.320Z,3.02
2019-04-26T14:22:14.766Z,2.40
2019-04-26T14:24:44.690Z,1.82
2019-04-26T14:27:15.271Z,1.20
2019-04-26T14:29:44.800Z,2.72
2019-04-26T14:32:13.096Z,3.55
2019-04-26T14:34:41.991Z,2.72
2019-04-26T14:37:11.048Z,1.55
2019-04-26T14:39:50.265Z,1.92
2019-04-26T14:42:10.816Z,1.67
2019-04-26T14:44:48.889Z,1.45
2019-04-26T14:47:14.937Z,1.85
2019-04-26T14:49:42.853Z,2.45
2019-04-26T14:52:09.219Z,1.57
2019-04-26T14:54:37.507Z,2.22
2019-04-26T14:57:09.361Z,2.65
2019-04-26T14:59:49.330Z,1.12
2019-04-26T15:02:35.240Z,1.87
2019-04-26T15:05:09.342Z,2.33
2019-04-26T15:07:48.641Z,1.98
2019-04-26T15:10:10.974Z,2.65
2019-04-26T15:12:46.180Z,1.60
2019-04-26T15:15:07.870Z,1.82
2019-04-26T15:17:36.167Z,4.37
2019-04-26T15:20:05.491Z,2.25
2019-04-26T15:22:33.785Z,3.05
2019-04-26T15:25:03.421Z,2.22
2019-04-26T15:27:32.242Z,2.05
2019-04-26T15:30:04.292Z,1.32
2019-04-26T15:32:34.338Z,2.60
2019-04-26T15:35:01.800Z,3.27
2019-04-26T15:37:30.170Z,2.02
2019-04-26T15:40:08.955Z,2.22
2019-04-26T15:42:58.985Z,2.75
2019-04-26T15:45:28.443Z,3.45
2019-04-26T15:47:58.384Z,2.92
2019-04-26T15:50:40.996Z,2.55
2019-04-26T15:53:12.726Z,2.62
2019-04-26T15:55:41.575Z,2.52
2019-04-26T15:58:10.085Z,2.27
2019-04-26T16:00:38.417Z,2.90
2019-04-26T16:03:07.520Z,2.37
2019-04-26T16:05:36.091Z,2.98
2019-04-26T16:08:04.704Z,3.05
2019-04-26T16:10:34.653Z,2.92
2019-04-26T16:13:16.093Z,2.52
2019-04-26T16:15:33.518Z,1.65
2019-04-26T16:18:04.243Z,3.25
2019-04-26T16:20:38.094Z,2.95
2019-04-26T16:23:06.267Z,2.60
2019-04-26T16:25:34.346Z,3.12
2019-04-26T16:28:19.937Z,3.47
2019-04-26T16:31:06.678Z,3.62
2019-04-26T16:33:52.833Z,2.17
2019-04-26T16:36:21.902Z,3.62
2019-04-26T16:38:54.779Z,2.87
2019-04-26T16:41:21.854Z,2.75
2019-04-26T16:43:53.582Z,2.67
2019-04-26T16:46:23.081Z,3.40
2019-04-26T16:48:56.678Z,2.37
2019-04-26T16:51:23.351Z,2.72
2019-04-26T16:54:05.404Z,3.45
2019-04-26T16:56:25.923Z,2.27
2019-04-26T16:58:54.972Z,3.05
2019-04-26T17:01:23.419Z,3.00
2019-04-26T17:03:53.517Z,2.87
2019-04-26T17:06:23.314Z,3.60
2019-04-26T17:08:58.621Z,3.05
2019-04-26T17:11:22.953Z,2.90
2019-04-26T17:13:56.136Z,2.08
2019-04-26T17:16:22.413Z,1.47
2019-04-26T17:18:51.511Z,3.72
2019-04-26T17:21:22.320Z,3.33
2019-04-26T17:24:00.852Z,2.65
2019-04-26T17:26:33.672Z,2.83
2019-04-26T17:29:02.388Z,2.35
2019-04-26T17:31:30.773Z,2.55
2019-04-26T17:33:59.054Z,2.40
2019-04-26T17:36:27.353Z,2.90
2019-04-26T17:38:55.632Z,2.70
2019-04-26T17:41:23.954Z,3.25
2019-04-26T17:44:05.936Z,2.42
2019-04-26T17:46:22.602Z,2.95
2019-04-26T17:48:51.272Z,1.92
2019-04-26T17:51:22.974Z,2.70
2019-04-26T17:53:58.810Z,2.98
2019-04-26T17:56:21.534Z,1.47
2019-04-26T17:58:54.165Z,3.30
2019-04-26T18:01:39.960Z,2.22
2019-04-26T18:03:52.254Z,2.35
2019-04-26T18:06:29.400Z,3.05
2019-04-26T18:08:54.224Z,2.92
2019-04-26T18:11:24.735Z,2.80
2019-04-26T18:13:51.204Z,2.58
2019-04-26T18:16:22.389Z,2.83
2019-04-26T18:18:56.150Z,1.30
2019-04-26T18:21:29.060Z,3.35
2019-04-26T18:26:25.733Z,1.72
2019-04-26T18:28:55.265Z,1.40
2019-04-26T18:31:28.550Z,1.95
2019-04-26T18:33:54.885Z,1.62
2019-04-26T18:36:27.583Z,1.22
2019-04-26T18:38:54.328Z,2.27
2019-04-26T18:41:28.542Z,2.00
2019-04-26T18:43:55.566Z,1.87
2019-04-26T18:46:24.330Z,2.40
2019-04-26T18:48:53.514Z,1.42
2019-04-26T18:51:23.526Z,2.33
2019-04-26T18:54:09.348Z,1.98
2019-04-26T18:56:39.561Z,2.05
2019-04-26T18:59:07.281Z,1.85
2019-04-26T19:01:40.910Z,2.35
2019-04-26T19:04:12.549Z,2.25
2019-04-26T19:06:38.040Z,1.65
2019-04-26T19:09:08.592Z,1.95
2019-04-26T19:11:36.906Z,3.08
2019-04-26T19:14:23.599Z,1.82
2019-04-26T19:16:58.809Z,2.08
2019-04-26T19:19:26.030Z,3.25
2019-04-26T19:22:00.781Z,2.75
2019-04-26T19:24:28.781Z,1.50
2019-04-26T19:26:57.166Z,2.33
2019-04-26T19:29:32.868Z,1.95
2019-04-26T19:31:56.686Z,1.40
2019-04-26T19:34:26.035Z,2.92
2019-04-26T19:36:56.303Z,1.67
2019-04-26T19:39:31.965Z,1.95
2019-04-26T19:41:57.571Z,2.47
2019-04-26T19:44:25.646Z,2.52
2019-04-26T19:46:58.055Z,2.72
2019-04-26T19:49:29.907Z,2.65
2019-04-26T19:52:05.014Z,1.90
2019-04-26T19:54:38.587Z,2.40
2019-04-26T19:57:08.560Z,2.25
2019-04-26T19:59:36.869Z,2.25
2019-04-26T20:02:05.594Z,4.40
2019-04-26T20:04:34.259Z,1.95
2019-04-26T20:07:02.566Z,2.85
2019-04-26T20:09:31.902Z,2.00
2019-04-26T20:12:02.328Z,3.12
2019-04-26T20:14:44.637Z,1.72
2019-04-26T20:17:01.742Z,2.33
2019-04-26T20:19:35.107Z,4.10
2019-04-26T20:22:01.885Z,2.05
2019-04-26T20:24:30.575Z,1.62
2019-04-26T20:26:58.857Z,2.75
2019-04-26T20:29:27.159Z,2.92
2019-04-26T20:31:59.552Z,2.02
2019-04-26T20:34:27.827Z,2.67
2019-04-26T20:36:56.103Z,3.10
2019-04-26T20:39:24.459Z,2.87
2019-04-26T20:42:01.259Z,2.95
2019-04-26T20:44:28.358Z,2.67
2019-04-26T20:46:53.133Z,2.02
2019-04-26T20:49:22.260Z,2.20
2019-04-26T20:51:51.912Z,1.57
2019-04-26T20:54:20.308Z,1.65
2019-04-26T20:56:52.507Z,1.52
2019-04-26T20:59:20.163Z,1.98
2019-04-26T21:02:02.686Z,1.80
2019-04-26T21:04:34.933Z,2.25
2019-04-26T21:06:49.037Z,2.52
2019-04-26T21:09:18.354Z,2.20
2019-04-26T21:11:46.645Z,1.22
2019-04-26T21:14:14.939Z,2.42
2019-04-26T21:16:49.270Z,1.85
2019-04-26T21:19:19.112Z,2.45
2019-04-26T21:21:48.360Z,2.45
2019-04-26T21:24:19.716Z,1.62
2019-04-26T21:26:54.574Z,2.10
2019-04-26T21:29:30.569Z,1.92
2019-04-26T21:32:03.397Z,3.10
2019-04-26T21:37:07.088Z,2.02
2019-04-26T21:39:44.167Z,1.65
2019-04-26T21:42:11.540Z,3.37
2019-04-26T21:44:39.838Z,1.85
2019-04-26T21:47:08.122Z,1.70
2019-04-26T21:49:38.087Z,2.85
2019-04-26T21:52:06.490Z,2.17
2019-04-26T21:54:35.062Z,2.45
2019-04-26T21:57:03.834Z,2.05
2019-04-26T21:59:35.182Z,1.85
2019-04-26T22:02:03.355Z,1.85
2019-04-26T22:04:36.333Z,2.98
2019-04-26T22:07:05.204Z,2.08
2019-04-26T22:09:36.806Z,2.10
2019-04-26T22:12:06.789Z,2.87
2019-04-26T22:14:36.706Z,2.22
2019-04-26T22:17:06.648Z,2.22
2019-04-26T22:19:43.298Z,2.58
2019-04-26T22:22:25.323Z,1.55
2019-04-26T22:24:55.689Z,1.57
2019-04-26T22:27:25.343Z,3.00
2019-04-26T22:29:55.075Z,3.05
2019-04-26T22:32:23.504Z,2.37
2019-04-26T22:34:53.720Z,1.85
2019-04-26T22:37:29.553Z,2.42
2019-04-26T22:39:51.845Z,1.90
2019-04-26T22:42:21.312Z,1.50
2019-04-26T22:44:51.234Z,1.67
2019-04-26T22:47:21.182Z,2.40
2019-04-26T22:49:49.448Z,2.72
2019-04-26T22:52:17.747Z,1.55
2019-04-26T22:54:46.691Z,1.50
2019-04-26T22:57:16.277Z,1.82
2019-04-26T22:59:49.969Z,2.02
2019-04-26T23:02:18.578Z,1.42
2019-04-26T23:04:46.463Z,2.42
2019-04-26T23:07:18.493Z,2.35
2019-04-26T23:09:51.962Z,1.10
2019-04-26T23:12:24.789Z,1.50
2019-04-26T23:15:03.259Z,2.02
2019-04-26T23:17:34.908Z,1.77
2019-04-26T23:20:25.208Z,1.72
2019-04-26T23:22:54.565Z,1.77
2019-04-26T23:25:23.804Z,1.00
2019-04-26T23:27:55.141Z,1.37
2019-04-26T23:30:23.076Z,3.77
2019-04-26T23:32:52.213Z,2.83
2019-04-26T23:35:21.426Z,1.45
2019-04-26T23:37:49.722Z,3.45
2019-04-26T23:40:20.775Z,2.72
2019-04-26T23:42:51.551Z,3.00
2019-04-26T23:45:18.225Z,1.60
2019-04-26T23:47:46.528Z,2.25
2019-04-26T23:50:14.873Z,2.05
2019-04-26T23:52:43.691Z,2.00
2019-04-26T23:55:13.501Z,0.85
2019-04-26T23:57:43.471Z,2.15
